KBTM

Bert Mooney Airport

Butte, Montana, USA
KBTM 261120Z 2612/2712 11003KT P6SM SKC FM261700 21005KT P6SM SKC
Issued Valid From Valid To
Apr-26 @ 11:20 UTC
(2 hours ago)
Apr-26 @ 12:00 UTC
(2 hours ago)
Apr-27 @ 12:00 UTC
(in 22 hours)
Apr-26 @ 12:00 to Apr-26 @ 17:00
KBTM 261120Z 2612/2712 11003KT P6SM SKC
Wind Visibility Clouds
110° at 3 knots Greater than 6 miles
  • Clear skies
From Apr-26 @ 17:00 to Apr-27 @ 12:00
FM261700 21005KT P6SM SKC
Wind Visibility Clouds
210° at 5 knots Greater than 6 miles
  • Clear skies
KBTM 261120Z 2612/2712 11003KT P6SM SKC FM261700 21005KT P6SM SKC
Issued Apr-26 @ 11:20 UTC
(2 hours ago)
Valid From Apr-26 @ 12:00 UTC
(2 hours ago)
Valid To Apr-27 @ 12:00 UTC
(in 22 hours)
Apr-26 @ 12:00 - Apr-26 @ 17:00
Wind Visibility
110° at 3 knots Greater than 6 miles
Clouds
  • Clear skies
From Apr-26 @ 17:00 - Apr-27 @ 12:00
Wind Visibility
210° at 5 knots Greater than 6 miles
Clouds
  • Clear skies